WZZ105 LDDU-EPKT
Flight info
| Callsign | WZZ105 |
|---|---|
| Flight time | 1h 36m |
| Altitude | 35000 |
| Route | MOKUN DCT TORTO DCT VAL DCT PARAK DCT UVERA DCT IBLIZ DCT RAZEC DCT LENOV |
| Aircraft | A320/M-SDE3FGHIRWY/LB1 |
Departure
| Time | 2026-05-07 20:17 |
|---|---|
| Airport | Dubrovnik Ruđer Bošković Airport (LDDU) |
Arrival
| Time | 2026-05-07 21:53 |
|---|---|
| Airport | Katowice Wojciech Korfanty International Airport (EPKT) |
| Time | Latitude | Longitude | Altitude | Speed | Heading |
|---|---|---|---|---|---|
| 2026-05-07 19:46 | 42.56106 | 18.26246 | 534 ft | 0 kts | 208° |
| 2026-05-07 20:10 | 42.56107 | 18.26247 | 534 ft | 2 kts | 208° |
| 2026-05-07 20:10 | 42.56129 | 18.26263 | 534 ft | 4 kts | 209° |
| 2026-05-07 20:10 | 42.56148 | 18.26283 | 534 ft | 4 kts | 242° |
| 2026-05-07 20:10 | 42.56152 | 18.26313 | 534 ft | 4 kts | 291° |
| 2026-05-07 20:11 | 42.56151 | 18.26319 | 534 ft | 0 kts | 296° |
| 2026-05-07 20:13 | 42.56154 | 18.26310 | 534 ft | 4 kts | 296° |
| 2026-05-07 20:13 | 42.56189 | 18.26218 | 534 ft | 17 kts | 298° |
| 2026-05-07 20:14 | 42.56254 | 18.26055 | 534 ft | 23 kts | 298° |
| 2026-05-07 20:14 | 42.56339 | 18.25841 | 534 ft | 27 kts | 298° |
| 2026-05-07 20:14 | 42.56431 | 18.25611 | 534 ft | 29 kts | 298° |
| 2026-05-07 20:14 | 42.56529 | 18.25367 | 534 ft | 30 kts | 298° |
| 2026-05-07 20:15 | 42.56595 | 18.25197 | 534 ft | 31 kts | 298° |
| 2026-05-07 20:15 | 42.56737 | 18.24839 | 534 ft | 33 kts | 298° |
| 2026-05-07 20:15 | 42.56876 | 18.24670 | 533 ft | 26 kts | 14° |
| 2026-05-07 20:15 | 42.56926 | 18.24831 | 533 ft | 20 kts | 115° |
| 2026-05-07 20:16 | 42.56831 | 18.25076 | 532 ft | 52 kts | 118° |
| 2026-05-07 20:16 | 42.56554 | 18.25774 | 535 ft | 113 kts | 118° |
| 2026-05-07 20:16 | 42.56104 | 18.26913 | 537 ft | 159 kts | 118° |
| 2026-05-07 20:16 | 42.55560 | 18.28285 | 1034 ft | 163 kts | 117° |
| 2026-05-07 20:17 | 42.55022 | 18.29641 | 1737 ft | 163 kts | 117° |
| 2026-05-07 20:17 | 42.54487 | 18.31001 | 2345 ft | 168 kts | 117° |
| 2026-05-07 20:17 | 42.53899 | 18.32499 | 2647 ft | 190 kts | 118° |
| 2026-05-07 20:17 | 42.53144 | 18.34086 | 2953 ft | 213 kts | 133° |
| 2026-05-07 20:18 | 42.51914 | 18.35419 | 3308 ft | 239 kts | 150° |
| 2026-05-07 20:18 | 42.50297 | 18.36261 | 3838 ft | 257 kts | 169° |
| 2026-05-07 20:18 | 42.48491 | 18.36354 | 4704 ft | 264 kts | 187° |
| 2026-05-07 20:18 | 42.46721 | 18.35633 | 5604 ft | 268 kts | 207° |
| 2026-05-07 20:19 | 42.45224 | 18.34121 | 6518 ft | 271 kts | 224° |
| 2026-05-07 20:19 | 42.43827 | 18.32438 | 7403 ft | 274 kts | 218° |
| 2026-05-07 20:19 | 42.42257 | 18.30880 | 7831 ft | 277 kts | 213° |
| 2026-05-07 20:19 | 42.40602 | 18.29540 | 7983 ft | 277 kts | 208° |
| 2026-05-07 20:20 | 42.38890 | 18.28408 | 8009 ft | 277 kts | 203° |
| 2026-05-07 20:20 | 42.37094 | 18.27482 | 8014 ft | 276 kts | 198° |
| 2026-05-07 20:20 | 42.35245 | 18.26767 | 8015 ft | 276 kts | 194° |
| 2026-05-07 20:20 | 42.33383 | 18.26131 | 8015 ft | 276 kts | 194° |
| 2026-05-07 20:21 | 42.31520 | 18.25493 | 8009 ft | 276 kts | 194° |
| 2026-05-07 20:21 | 42.29655 | 18.24851 | 8014 ft | 276 kts | 194° |
| 2026-05-07 20:21 | 42.27790 | 18.24210 | 8014 ft | 277 kts | 194° |
| 2026-05-07 20:21 | 42.25968 | 18.23421 | 8005 ft | 276 kts | 206° |
| 2026-05-07 20:22 | 42.24427 | 18.21889 | 8010 ft | 277 kts | 227° |
| 2026-05-07 20:22 | 42.23377 | 18.19714 | 8007 ft | 279 kts | 246° |
| 2026-05-07 20:22 | 42.22942 | 18.17163 | 8011 ft | 281 kts | 266° |
| 2026-05-07 20:22 | 42.23192 | 18.14548 | 8014 ft | 284 kts | 287° |
| 2026-05-07 20:23 | 42.24125 | 18.12190 | 8017 ft | 288 kts | 308° |
| 2026-05-07 20:23 | 42.25638 | 18.10423 | 8022 ft | 291 kts | 329° |
| 2026-05-07 20:23 | 42.27538 | 18.09510 | 8021 ft | 292 kts | 351° |
| 2026-05-07 20:23 | 42.29557 | 18.09586 | 8010 ft | 293 kts | 13° |
| 2026-05-07 20:24 | 42.31428 | 18.10652 | 8008 ft | 293 kts | 35° |
| 2026-05-07 20:24 | 42.32866 | 18.12588 | 8232 ft | 297 kts | 59° |
| 2026-05-07 20:24 | 42.33793 | 18.15069 | 9123 ft | 297 kts | 66° |
| 2026-05-07 20:24 | 42.34667 | 18.17613 | 9945 ft | 300 kts | 66° |
| 2026-05-07 20:25 | 42.35569 | 18.20238 | 10385 ft | 320 kts | 66° |
| 2026-05-07 20:25 | 42.36538 | 18.23080 | 10586 ft | 344 kts | 66° |
| 2026-05-07 20:25 | 42.37561 | 18.26072 | 10836 ft | 363 kts | 66° |
| 2026-05-07 20:25 | 42.38634 | 18.29201 | 11433 ft | 370 kts | 65° |
| 2026-05-07 20:26 | 42.39725 | 18.32376 | 12099 ft | 375 kts | 65° |
| 2026-05-07 20:26 | 42.40824 | 18.35587 | 12786 ft | 378 kts | 65° |
| 2026-05-07 20:26 | 42.41925 | 18.38837 | 13442 ft | 382 kts | 65° |
| 2026-05-07 20:26 | 42.43036 | 18.42121 | 14062 ft | 385 kts | 65° |
| 2026-05-07 20:27 | 42.44268 | 18.45352 | 14649 ft | 389 kts | 58° |
| 2026-05-07 20:27 | 42.45894 | 18.48293 | 15229 ft | 393 kts | 47° |
| 2026-05-07 20:27 | 42.47887 | 18.50836 | 15796 ft | 395 kts | 37° |
| 2026-05-07 20:27 | 42.50104 | 18.53062 | 16381 ft | 398 kts | 35° |
| 2026-05-07 20:28 | 42.52342 | 18.55294 | 16929 ft | 402 kts | 35° |
| 2026-05-07 20:28 | 42.54599 | 18.57550 | 17491 ft | 404 kts | 36° |
| 2026-05-07 20:28 | 42.56872 | 18.59839 | 18054 ft | 409 kts | 36° |
| 2026-05-07 20:28 | 42.59163 | 18.62152 | 18614 ft | 412 kts | 36° |
| 2026-05-07 20:29 | 42.61477 | 18.64487 | 19168 ft | 415 kts | 36° |
| 2026-05-07 20:29 | 42.63803 | 18.66830 | 19707 ft | 418 kts | 36° |
| 2026-05-07 20:29 | 42.66148 | 18.69193 | 20227 ft | 422 kts | 35° |
| 2026-05-07 20:29 | 42.68516 | 18.71576 | 20731 ft | 425 kts | 35° |
| 2026-05-07 20:30 | 42.70900 | 18.73978 | 21209 ft | 428 kts | 36° |
| 2026-05-07 20:30 | 42.73298 | 18.76402 | 21672 ft | 431 kts | 36° |
| 2026-05-07 20:30 | 42.75707 | 18.78842 | 22109 ft | 434 kts | 36° |
| 2026-05-07 20:30 | 42.78139 | 18.81305 | 22542 ft | 437 kts | 36° |
| 2026-05-07 20:31 | 42.80586 | 18.83784 | 22982 ft | 440 kts | 36° |
| 2026-05-07 20:31 | 42.83045 | 18.86276 | 23401 ft | 442 kts | 36° |
| 2026-05-07 20:31 | 42.85522 | 18.88789 | 23789 ft | 445 kts | 36° |
| 2026-05-07 20:31 | 42.88012 | 18.91318 | 24184 ft | 448 kts | 36° |
| 2026-05-07 20:32 | 42.90516 | 18.93869 | 24576 ft | 450 kts | 36° |
| 2026-05-07 20:32 | 42.93029 | 18.96437 | 24966 ft | 452 kts | 36° |
| 2026-05-07 20:32 | 42.95517 | 18.98980 | 25336 ft | 455 kts | 36° |
| 2026-05-07 20:32 | 42.98058 | 19.01572 | 25710 ft | 457 kts | 35° |
| 2026-05-07 20:33 | 43.00612 | 19.04177 | 26082 ft | 459 kts | 36° |
| 2026-05-07 20:33 | 43.03170 | 19.06794 | 26450 ft | 461 kts | 36° |
| 2026-05-07 20:33 | 43.05744 | 19.09432 | 26811 ft | 465 kts | 36° |
| 2026-05-07 20:33 | 43.08336 | 19.12089 | 27182 ft | 466 kts | 36° |
| 2026-05-07 20:34 | 43.10933 | 19.14758 | 27530 ft | 468 kts | 36° |
| 2026-05-07 20:34 | 43.13539 | 19.17437 | 27935 ft | 468 kts | 36° |
| 2026-05-07 20:34 | 43.16138 | 19.20113 | 28412 ft | 466 kts | 36° |
| 2026-05-07 20:34 | 43.18732 | 19.22787 | 28896 ft | 465 kts | 35° |
| 2026-05-07 20:35 | 43.21309 | 19.25442 | 29365 ft | 463 kts | 35° |
| 2026-05-07 20:35 | 43.23884 | 19.28092 | 29815 ft | 462 kts | 35° |
| 2026-05-07 20:35 | 43.25588 | 19.29849 | 30122 ft | 462 kts | 35° |
| 2026-05-07 20:35 | 43.28153 | 19.32501 | 30575 ft | 460 kts | 35° |
| 2026-05-07 20:36 | 43.30711 | 19.35155 | 31008 ft | 460 kts | 35° |
| 2026-05-07 20:36 | 43.33259 | 19.37801 | 31441 ft | 459 kts | 35° |
| 2026-05-07 20:36 | 43.35808 | 19.40443 | 31870 ft | 458 kts | 35° |
| 2026-05-07 20:36 | 43.38353 | 19.43080 | 32297 ft | 458 kts | 35° |
| 2026-05-07 20:37 | 43.40892 | 19.45717 | 32707 ft | 457 kts | 35° |
| 2026-05-07 20:37 | 43.43428 | 19.48357 | 33130 ft | 456 kts | 34° |
| 2026-05-07 20:37 | 43.45952 | 19.50992 | 33534 ft | 455 kts | 35° |
| 2026-05-07 20:37 | 43.48475 | 19.53633 | 33927 ft | 455 kts | 34° |
| 2026-05-07 20:38 | 43.50989 | 19.56261 | 34325 ft | 454 kts | 34° |
| 2026-05-07 20:38 | 43.53511 | 19.58893 | 34707 ft | 454 kts | 34° |
| 2026-05-07 20:38 | 43.55988 | 19.61486 | 35011 ft | 454 kts | 34° |
| 2026-05-07 20:39 | 43.61064 | 19.66808 | 35081 ft | 464 kts | 35° |
| 2026-05-07 20:39 | 43.66448 | 19.71712 | 35080 ft | 463 kts | 22° |
| 2026-05-07 20:40 | 43.72534 | 19.74324 | 35072 ft | 456 kts | 6° |
| 2026-05-07 20:40 | 43.78808 | 19.75690 | 35072 ft | 456 kts | 6° |
| 2026-05-07 20:41 | 43.85092 | 19.77076 | 35075 ft | 457 kts | 6° |
| 2026-05-07 20:41 | 43.91366 | 19.78454 | 35072 ft | 457 kts | 6° |
| 2026-05-07 20:42 | 43.97656 | 19.79832 | 35084 ft | 457 kts | 6° |
| 2026-05-07 20:42 | 44.03897 | 19.81212 | 35087 ft | 457 kts | 6° |
| 2026-05-07 20:43 | 44.10189 | 19.82611 | 35097 ft | 458 kts | 6° |
| 2026-05-07 20:43 | 44.16487 | 19.84009 | 35097 ft | 458 kts | 6° |
| 2026-05-07 20:44 | 44.22788 | 19.85423 | 35095 ft | 458 kts | 6° |
| 2026-05-07 20:44 | 44.29086 | 19.86839 | 35098 ft | 458 kts | 6° |
| 2026-05-07 20:45 | 44.35394 | 19.88091 | 35084 ft | 457 kts | 3° |
| 2026-05-07 20:45 | 44.41729 | 19.88791 | 35090 ft | 456 kts | 1° |
| 2026-05-07 20:46 | 44.48027 | 19.89348 | 35086 ft | 457 kts | 1° |
| 2026-05-07 20:46 | 44.54363 | 19.90022 | 35084 ft | 457 kts | 2° |
| 2026-05-07 20:47 | 44.60694 | 19.90780 | 35073 ft | 457 kts | 2° |
| 2026-05-07 20:47 | 44.67022 | 19.91548 | 35068 ft | 456 kts | 2° |
| 2026-05-07 20:48 | 44.73351 | 19.92293 | 35063 ft | 457 kts | 2° |
| 2026-05-07 20:48 | 44.79695 | 19.93023 | 35058 ft | 457 kts | 2° |
| 2026-05-07 20:49 | 44.85989 | 19.93756 | 35048 ft | 457 kts | 2° |
| 2026-05-07 20:49 | 44.92331 | 19.94501 | 35042 ft | 458 kts | 2° |
| 2026-05-07 20:50 | 44.98685 | 19.95250 | 35039 ft | 458 kts | 2° |
| 2026-05-07 20:50 | 45.05049 | 19.95997 | 35042 ft | 459 kts | 2° |
| 2026-05-07 20:51 | 45.11407 | 19.96744 | 35043 ft | 458 kts | 2° |
| 2026-05-07 20:51 | 45.17764 | 19.97504 | 35041 ft | 459 kts | 2° |
| 2026-05-07 20:52 | 45.24137 | 19.98264 | 35042 ft | 460 kts | 2° |
| 2026-05-07 20:52 | 45.30507 | 19.99021 | 35042 ft | 460 kts | 3° |
| 2026-05-07 20:53 | 45.36889 | 19.99786 | 35042 ft | 460 kts | 3° |
| 2026-05-07 20:53 | 45.43276 | 20.00553 | 35044 ft | 461 kts | 3° |
| 2026-05-07 20:54 | 45.49631 | 20.01310 | 35050 ft | 461 kts | 3° |
| 2026-05-07 20:54 | 45.56036 | 20.02077 | 35049 ft | 462 kts | 3° |
| 2026-05-07 20:55 | 45.62441 | 20.02851 | 35049 ft | 462 kts | 3° |
| 2026-05-07 20:55 | 45.68847 | 20.03628 | 35053 ft | 462 kts | 3° |
| 2026-05-07 20:56 | 45.75262 | 20.04398 | 35054 ft | 463 kts | 3° |
| 2026-05-07 20:56 | 45.81695 | 20.05169 | 35060 ft | 463 kts | 3° |
| 2026-05-07 20:57 | 45.88112 | 20.05947 | 35062 ft | 463 kts | 3° |
| 2026-05-07 20:57 | 45.94524 | 20.06730 | 35058 ft | 462 kts | 3° |
| 2026-05-07 20:58 | 46.00937 | 20.07520 | 35060 ft | 462 kts | 3° |
| 2026-05-07 20:58 | 46.07346 | 20.08297 | 35060 ft | 462 kts | 3° |
| 2026-05-07 20:59 | 46.13767 | 20.09075 | 35061 ft | 463 kts | 3° |
| 2026-05-07 20:59 | 46.20078 | 20.10573 | 35063 ft | 463 kts | 11° |
| 2026-05-07 21:00 | 46.26379 | 20.12601 | 35060 ft | 464 kts | 11° |
| 2026-05-07 21:00 | 46.32689 | 20.14607 | 35059 ft | 464 kts | 11° |
| 2026-05-07 21:01 | 46.39006 | 20.16619 | 35061 ft | 465 kts | 11° |
| 2026-05-07 21:01 | 46.45309 | 20.18635 | 35050 ft | 464 kts | 11° |
| 2026-05-07 21:02 | 46.51615 | 20.20669 | 35049 ft | 464 kts | 11° |
| 2026-05-07 21:02 | 46.57925 | 20.22697 | 35052 ft | 465 kts | 11° |
| 2026-05-07 21:03 | 46.64245 | 20.24735 | 35055 ft | 465 kts | 11° |
| 2026-05-07 21:03 | 46.70556 | 20.26788 | 35057 ft | 465 kts | 11° |
| 2026-05-07 21:04 | 46.76842 | 20.28831 | 35061 ft | 465 kts | 11° |
| 2026-05-07 21:04 | 46.83168 | 20.30878 | 35063 ft | 466 kts | 11° |
| 2026-05-07 21:05 | 46.89493 | 20.32935 | 35059 ft | 466 kts | 11° |
| 2026-05-07 21:05 | 46.95821 | 20.35007 | 35060 ft | 466 kts | 11° |
| 2026-05-07 21:06 | 47.02147 | 20.37087 | 35057 ft | 466 kts | 11° |
| 2026-05-07 21:06 | 47.08471 | 20.39166 | 35054 ft | 466 kts | 11° |
| 2026-05-07 21:07 | 47.14812 | 20.41260 | 35054 ft | 467 kts | 12° |
| 2026-05-07 21:07 | 47.21106 | 20.43338 | 35050 ft | 467 kts | 11° |
| 2026-05-07 21:08 | 47.27459 | 20.45318 | 35055 ft | 467 kts | 10° |
| 2026-05-07 21:08 | 47.33847 | 20.47203 | 35060 ft | 468 kts | 10° |
| 2026-05-07 21:09 | 47.40221 | 20.49119 | 35058 ft | 467 kts | 11° |
| 2026-05-07 21:09 | 47.46593 | 20.51071 | 35056 ft | 467 kts | 11° |
| 2026-05-07 21:10 | 47.52969 | 20.53035 | 35051 ft | 468 kts | 11° |
| 2026-05-07 21:10 | 47.59348 | 20.55001 | 35052 ft | 468 kts | 11° |
| 2026-05-07 21:11 | 47.65716 | 20.56967 | 35051 ft | 467 kts | 11° |
| 2026-05-07 21:11 | 47.75268 | 20.59923 | 35045 ft | 468 kts | 11° |
| 2026-05-07 21:12 | 47.81648 | 20.61905 | 35039 ft | 469 kts | 10° |
| 2026-05-07 21:12 | 47.88012 | 20.63885 | 35036 ft | 470 kts | 10° |
| 2026-05-07 21:13 | 47.94418 | 20.65883 | 35043 ft | 470 kts | 10° |
| 2026-05-07 21:13 | 48.00828 | 20.67884 | 35050 ft | 470 kts | 10° |
| 2026-05-07 21:14 | 48.07245 | 20.69895 | 35051 ft | 472 kts | 11° |
| 2026-05-07 21:14 | 48.13676 | 20.71915 | 35055 ft | 472 kts | 11° |
| 2026-05-07 21:15 | 48.20100 | 20.73942 | 35057 ft | 472 kts | 11° |
| 2026-05-07 21:15 | 48.26523 | 20.75983 | 35057 ft | 472 kts | 11° |
| 2026-05-07 21:16 | 48.32944 | 20.78043 | 35059 ft | 472 kts | 12° |
| 2026-05-07 21:16 | 48.39323 | 20.80422 | 35054 ft | 472 kts | 14° |
| 2026-05-07 21:17 | 48.45667 | 20.83007 | 35053 ft | 472 kts | 14° |
| 2026-05-07 21:17 | 48.52020 | 20.85563 | 35053 ft | 472 kts | 14° |
| 2026-05-07 21:18 | 48.58339 | 20.88010 | 35051 ft | 471 kts | 13° |
| 2026-05-07 21:18 | 48.64699 | 20.90457 | 35044 ft | 472 kts | 13° |
| 2026-05-07 21:19 | 48.71052 | 20.92927 | 35041 ft | 471 kts | 13° |
| 2026-05-07 21:19 | 48.77404 | 20.95413 | 35041 ft | 472 kts | 14° |
| 2026-05-07 21:20 | 48.83757 | 20.97924 | 35037 ft | 472 kts | 14° |
| 2026-05-07 21:20 | 48.90104 | 21.00426 | 35036 ft | 471 kts | 14° |
| 2026-05-07 21:21 | 48.96450 | 21.02933 | 35030 ft | 471 kts | 14° |
| 2026-05-07 21:21 | 49.02806 | 21.05448 | 35028 ft | 471 kts | 14° |
| 2026-05-07 21:22 | 49.09147 | 21.07708 | 35025 ft | 470 kts | 6° |
| 2026-05-07 21:22 | 49.15646 | 21.07559 | 35024 ft | 467 kts | 348° |
| 2026-05-07 21:23 | 49.21959 | 21.05314 | 35021 ft | 466 kts | 344° |
| 2026-05-07 21:23 | 49.28258 | 21.02913 | 35019 ft | 467 kts | 340° |
| 2026-05-07 21:24 | 49.34022 | 20.98559 | 35005 ft | 459 kts | 322° |
| 2026-05-07 21:24 | 49.36524 | 20.95513 | 34146 ft | 461 kts | 314° |
| 2026-05-07 21:24 | 49.38705 | 20.91885 | 33072 ft | 462 kts | 307° |
| 2026-05-07 21:25 | 49.40769 | 20.88082 | 31637 ft | 466 kts | 307° |
| 2026-05-07 21:25 | 49.42826 | 20.84289 | 30753 ft | 456 kts | 307° |
| 2026-05-07 21:25 | 49.44872 | 20.80520 | 29643 ft | 464 kts | 307° |
| 2026-05-07 21:25 | 49.46953 | 20.76684 | 28504 ft | 471 kts | 307° |
| 2026-05-07 21:26 | 49.48350 | 20.74112 | 27746 ft | 475 kts | 307° |
| 2026-05-07 21:26 | 49.50481 | 20.70187 | 26568 ft | 480 kts | 307° |
| 2026-05-07 21:26 | 49.52612 | 20.66274 | 25891 ft | 474 kts | 308° |
| 2026-05-07 21:26 | 49.54719 | 20.62399 | 25100 ft | 469 kts | 308° |
| 2026-05-07 21:27 | 49.56804 | 20.58558 | 24306 ft | 464 kts | 308° |
| 2026-05-07 21:27 | 49.58860 | 20.54755 | 23676 ft | 457 kts | 308° |
| 2026-05-07 21:27 | 49.60867 | 20.51043 | 23401 ft | 448 kts | 308° |
| 2026-05-07 21:27 | 49.62854 | 20.47363 | 23006 ft | 444 kts | 308° |
| 2026-05-07 21:28 | 49.64823 | 20.43706 | 22271 ft | 444 kts | 307° |
| 2026-05-07 21:28 | 49.66789 | 20.40041 | 21472 ft | 434 kts | 307° |
| 2026-05-07 21:28 | 49.68702 | 20.36476 | 20995 ft | 429 kts | 307° |
| 2026-05-07 21:28 | 49.70596 | 20.32939 | 20475 ft | 425 kts | 307° |
| 2026-05-07 21:29 | 49.72472 | 20.29424 | 20093 ft | 422 kts | 307° |
| 2026-05-07 21:29 | 49.74334 | 20.25930 | 20002 ft | 421 kts | 307° |
| 2026-05-07 21:29 | 49.76298 | 20.22554 | 20030 ft | 423 kts | 315° |
| 2026-05-07 21:29 | 49.78619 | 20.19745 | 19788 ft | 425 kts | 325° |
| 2026-05-07 21:30 | 49.81210 | 20.17637 | 18508 ft | 427 kts | 337° |
| 2026-05-07 21:30 | 49.84071 | 20.16413 | 17148 ft | 425 kts | 348° |
| 2026-05-07 21:30 | 49.86916 | 20.15551 | 16684 ft | 410 kts | 347° |
| 2026-05-07 21:30 | 49.89697 | 20.14633 | 16375 ft | 407 kts | 346° |
| 2026-05-07 21:31 | 49.92400 | 20.13441 | 15882 ft | 402 kts | 337° |
| 2026-05-07 21:31 | 49.94880 | 20.11513 | 15389 ft | 397 kts | 326° |
| 2026-05-07 21:31 | 49.97080 | 20.08967 | 14922 ft | 393 kts | 316° |
| 2026-05-07 21:31 | 49.99034 | 20.06019 | 14447 ft | 390 kts | 314° |
| 2026-05-07 21:32 | 50.00965 | 20.03065 | 13974 ft | 388 kts | 314° |
| 2026-05-07 21:32 | 50.02890 | 20.00130 | 13508 ft | 386 kts | 314° |
| 2026-05-07 21:32 | 50.04799 | 19.97217 | 13036 ft | 383 kts | 314° |
| 2026-05-07 21:32 | 50.06645 | 19.94401 | 12759 ft | 356 kts | 314° |
| 2026-05-07 21:33 | 50.08346 | 19.91801 | 12643 ft | 330 kts | 314° |
| 2026-05-07 21:33 | 50.09935 | 19.89370 | 12369 ft | 313 kts | 314° |
| 2026-05-07 21:33 | 50.11464 | 19.87022 | 12091 ft | 307 kts | 314° |
| 2026-05-07 21:33 | 50.12970 | 19.84692 | 11915 ft | 302 kts | 314° |
| 2026-05-07 21:34 | 50.14462 | 19.82374 | 12020 ft | 305 kts | 314° |
| 2026-05-07 21:34 | 50.15973 | 19.80027 | 12026 ft | 306 kts | 314° |
| 2026-05-07 21:34 | 50.17559 | 19.77820 | 11989 ft | 307 kts | 322° |
| 2026-05-07 21:34 | 50.19269 | 19.75832 | 11791 ft | 305 kts | 322° |
| 2026-05-07 21:35 | 50.20971 | 19.73870 | 11622 ft | 303 kts | 322° |
| 2026-05-07 21:35 | 50.22669 | 19.71918 | 11451 ft | 302 kts | 323° |
| 2026-05-07 21:35 | 50.24333 | 19.70003 | 11289 ft | 300 kts | 322° |
| 2026-05-07 21:35 | 50.26011 | 19.68068 | 11130 ft | 299 kts | 322° |
| 2026-05-07 21:36 | 50.27682 | 19.66139 | 10957 ft | 298 kts | 322° |
| 2026-05-07 21:36 | 50.29343 | 19.64218 | 10794 ft | 297 kts | 322° |
| 2026-05-07 21:36 | 50.30995 | 19.62297 | 10630 ft | 295 kts | 322° |
| 2026-05-07 21:36 | 50.32635 | 19.60387 | 10472 ft | 293 kts | 322° |
| 2026-05-07 21:37 | 50.34273 | 19.58478 | 10300 ft | 290 kts | 322° |
| 2026-05-07 21:37 | 50.35842 | 19.56651 | 10079 ft | 274 kts | 322° |
| 2026-05-07 21:37 | 50.37306 | 19.54816 | 9738 ft | 265 kts | 313° |
| 2026-05-07 21:37 | 50.38368 | 19.52487 | 9612 ft | 262 kts | 295° |
| 2026-05-07 21:38 | 50.38905 | 19.49772 | 9487 ft | 261 kts | 277° |
| 2026-05-07 21:38 | 50.38960 | 19.46933 | 9361 ft | 260 kts | 270° |
| 2026-05-07 21:38 | 50.38955 | 19.44096 | 9232 ft | 260 kts | 270° |
| 2026-05-07 21:38 | 50.38950 | 19.41269 | 9111 ft | 259 kts | 270° |
| 2026-05-07 21:39 | 50.38942 | 19.38446 | 8984 ft | 259 kts | 270° |
| 2026-05-07 21:39 | 50.38931 | 19.35630 | 8860 ft | 259 kts | 270° |
| 2026-05-07 21:39 | 50.38923 | 19.32812 | 8734 ft | 258 kts | 270° |
| 2026-05-07 21:39 | 50.38919 | 19.30041 | 8611 ft | 257 kts | 270° |
| 2026-05-07 21:40 | 50.38917 | 19.27237 | 8490 ft | 257 kts | 270° |
| 2026-05-07 21:40 | 50.38915 | 19.24436 | 8365 ft | 257 kts | 270° |
| 2026-05-07 21:40 | 50.38912 | 19.21643 | 8240 ft | 256 kts | 270° |
| 2026-05-07 21:40 | 50.38907 | 19.18861 | 8106 ft | 255 kts | 270° |
| 2026-05-07 21:41 | 50.38903 | 19.16089 | 7977 ft | 255 kts | 270° |
| 2026-05-07 21:41 | 50.38894 | 19.13316 | 7863 ft | 254 kts | 270° |
| 2026-05-07 21:41 | 50.38885 | 19.10552 | 7739 ft | 253 kts | 270° |
| 2026-05-07 21:41 | 50.38877 | 19.07796 | 7679 ft | 253 kts | 270° |
| 2026-05-07 21:42 | 50.38868 | 19.05038 | 7603 ft | 253 kts | 270° |
| 2026-05-07 21:42 | 50.38862 | 19.02273 | 7485 ft | 253 kts | 270° |
| 2026-05-07 21:42 | 50.38854 | 18.99518 | 7352 ft | 252 kts | 269° |
| 2026-05-07 21:42 | 50.38851 | 18.96793 | 7216 ft | 251 kts | 270° |
| 2026-05-07 21:43 | 50.38849 | 18.94045 | 7076 ft | 255 kts | 271° |
| 2026-05-07 21:43 | 50.38846 | 18.91274 | 6965 ft | 253 kts | 271° |
| 2026-05-07 21:43 | 50.38834 | 18.88590 | 6826 ft | 252 kts | 268° |
| 2026-05-07 21:43 | 50.38816 | 18.85859 | 6698 ft | 249 kts | 270° |
| 2026-05-07 21:44 | 50.38818 | 18.83133 | 6577 ft | 249 kts | 271° |
| 2026-05-07 21:44 | 50.38821 | 18.80454 | 6439 ft | 243 kts | 270° |
| 2026-05-07 21:44 | 50.38816 | 18.77880 | 6304 ft | 228 kts | 270° |
| 2026-05-07 21:44 | 50.38810 | 18.75471 | 6180 ft | 213 kts | 270° |
| 2026-05-07 21:45 | 50.38805 | 18.73209 | 6006 ft | 204 kts | 270° |
| 2026-05-07 21:45 | 50.38800 | 18.70985 | 5948 ft | 205 kts | 270° |
| 2026-05-07 21:45 | 50.38800 | 18.68757 | 5845 ft | 204 kts | 273° |
| 2026-05-07 21:45 | 50.39192 | 18.66646 | 5733 ft | 204 kts | 302° |
| 2026-05-07 21:46 | 50.40174 | 18.65079 | 5624 ft | 204 kts | 329° |
| 2026-05-07 21:46 | 50.41521 | 18.64425 | 5500 ft | 205 kts | 357° |
| 2026-05-07 21:46 | 50.42950 | 18.64423 | 5372 ft | 206 kts | 359° |
| 2026-05-07 21:46 | 50.44382 | 18.64426 | 5243 ft | 206 kts | 359° |
| 2026-05-07 21:47 | 50.45792 | 18.64728 | 5112 ft | 206 kts | 21° |
| 2026-05-07 21:47 | 50.46952 | 18.66013 | 4989 ft | 206 kts | 50° |
| 2026-05-07 21:47 | 50.47580 | 18.68014 | 4799 ft | 208 kts | 79° |
| 2026-05-07 21:47 | 50.47640 | 18.70277 | 4621 ft | 207 kts | 90° |
| 2026-05-07 21:48 | 50.47637 | 18.72485 | 4439 ft | 198 kts | 90° |
| 2026-05-07 21:48 | 50.47636 | 18.74607 | 4253 ft | 196 kts | 90° |
| 2026-05-07 21:48 | 50.47635 | 18.76781 | 4064 ft | 195 kts | 90° |
| 2026-05-07 21:48 | 50.47636 | 18.78874 | 3891 ft | 191 kts | 90° |
| 2026-05-07 21:49 | 50.47636 | 18.80927 | 3725 ft | 186 kts | 89° |
| 2026-05-07 21:49 | 50.47636 | 18.82949 | 3558 ft | 185 kts | 90° |
| 2026-05-07 21:49 | 50.47635 | 18.84955 | 3399 ft | 183 kts | 90° |
| 2026-05-07 21:49 | 50.47632 | 18.86930 | 3244 ft | 179 kts | 90° |
| 2026-05-07 21:50 | 50.47630 | 18.88855 | 3071 ft | 176 kts | 92° |
| 2026-05-07 21:50 | 50.47619 | 18.90683 | 2902 ft | 166 kts | 91° |
| 2026-05-07 21:50 | 50.47610 | 18.92430 | 2683 ft | 156 kts | 89° |
| 2026-05-07 21:50 | 50.47611 | 18.94081 | 2471 ft | 148 kts | 89° |
| 2026-05-07 21:51 | 50.47613 | 18.95668 | 2278 ft | 144 kts | 89° |
| 2026-05-07 21:51 | 50.47613 | 18.97227 | 2088 ft | 142 kts | 89° |
| 2026-05-07 21:51 | 50.47613 | 18.98778 | 1900 ft | 142 kts | 89° |
| 2026-05-07 21:51 | 50.47610 | 19.00319 | 1710 ft | 140 kts | 90° |
| 2026-05-07 21:52 | 50.47596 | 19.01851 | 1571 ft | 141 kts | 90° |
| 2026-05-07 21:52 | 50.47605 | 19.03389 | 1377 ft | 140 kts | 89° |
| 2026-05-07 21:52 | 50.47614 | 19.04914 | 1184 ft | 140 kts | 90° |
| 2026-05-07 21:52 | 50.47600 | 19.06432 | 1014 ft | 138 kts | 89° |
| 2026-05-07 21:53 | 50.47601 | 19.07727 | 1000 ft | 97 kts | 90° |
| 2026-05-07 21:53 | 50.47599 | 19.08515 | 997 ft | 48 kts | 90° |
| 2026-05-07 21:53 | 50.47598 | 19.08792 | 1000 ft | 19 kts | 90° |
| 2026-05-07 21:53 | 50.47559 | 19.08978 | 1001 ft | 21 kts | 122° |
| 2026-05-07 21:54 | 50.47510 | 19.09096 | 1000 ft | 9 kts | 123° |
| 2026-05-07 21:54 | 50.47471 | 19.09187 | 999 ft | 11 kts | 125° |
| 2026-05-07 21:54 | 50.47427 | 19.09292 | 999 ft | 13 kts | 116° |
| 2026-05-07 21:54 | 50.47365 | 19.09389 | 1001 ft | 15 kts | 181° |
| 2026-05-07 21:55 | 50.47313 | 19.09387 | 998 ft | 1 kts | 182° |
| 2026-05-07 21:55 | 50.47295 | 19.09386 | 998 ft | 4 kts | 181° |
| 2026-05-07 21:55 | 50.47259 | 19.09386 | 1002 ft | 6 kts | 181° |
| 2026-05-07 21:55 | 50.47232 | 19.09342 | 1004 ft | 7 kts | 256° |
| 2026-05-07 21:56 | 50.47230 | 19.09252 | 1002 ft | 10 kts | 270° |
| 2026-05-07 21:56 | 50.47231 | 19.09132 | 998 ft | 12 kts | 270° |
| 2026-05-07 21:56 | 50.47231 | 19.08979 | 1000 ft | 15 kts | 270° |
| 2026-05-07 21:56 | 50.47231 | 19.08795 | 998 ft | 18 kts | 270° |
| 2026-05-07 21:57 | 50.47232 | 19.08579 | 1002 ft | 21 kts | 270° |
| 2026-05-07 21:57 | 50.47232 | 19.08334 | 998 ft | 24 kts | 270° |
| 2026-05-07 21:57 | 50.47233 | 19.08059 | 1002 ft | 26 kts | 270° |
| 2026-05-07 21:57 | 50.47234 | 19.07759 | 1000 ft | 29 kts | 270° |
| 2026-05-07 21:58 | 50.47234 | 19.07448 | 998 ft | 26 kts | 269° |
| 2026-05-07 21:58 | 50.47234 | 19.07323 | 998 ft | 10 kts | 270° |
| 2026-05-07 21:58 | 50.47235 | 19.07232 | 998 ft | 8 kts | 268° |
| 2026-05-07 21:58 | 50.47190 | 19.07212 | 998 ft | 8 kts | 181° |
| 2026-05-07 21:59 | 50.47177 | 19.07212 | 998 ft | 2 kts | 181° |
| 2026-05-07 21:59 | 50.47176 | 19.07212 | 998 ft | 0 kts | 181° |